createdAt,value
2023-12-14T00:02:03.734Z,5.74
2023-12-14T00:04:30.808Z,5.72
2023-12-14T00:06:57.866Z,5.82
2023-12-14T00:09:24.864Z,5.54
2023-12-14T00:11:51.784Z,5.64
2023-12-14T00:14:18.780Z,5.82
2023-12-14T00:16:45.846Z,5.78
2023-12-14T00:19:12.806Z,5.53
2023-12-14T00:21:39.820Z,5.46
2023-12-14T00:24:07.856Z,5.63
2023-12-14T00:26:34.820Z,5.48
2023-12-14T00:29:02.565Z,5.77
2023-12-14T00:31:29.956Z,5.89
2023-12-14T00:33:56.962Z,5.66
2023-12-14T00:36:23.885Z,5.75
2023-12-14T00:38:50.941Z,5.68
2023-12-14T00:41:17.995Z,5.63
2023-12-14T00:43:45.018Z,5.56
2023-12-14T00:46:12.703Z,5.51
2023-12-14T00:48:39.835Z,5.37
2023-12-14T00:51:07.125Z,5.71
2023-12-14T00:53:34.227Z,5.74
2023-12-14T00:56:01.178Z,5.71
2023-12-14T00:58:28.511Z,5.90
2023-12-14T01:00:56.059Z,5.93
2023-12-14T01:03:23.256Z,5.65
2023-12-14T01:05:50.400Z,5.79
2023-12-14T01:08:17.412Z,5.61
2023-12-14T01:10:44.930Z,5.51
2023-12-14T01:13:11.971Z,5.73
2023-12-14T01:15:38.900Z,5.53
2023-12-14T01:18:05.984Z,5.45
2023-12-14T01:20:33.409Z,5.61
2023-12-14T01:23:00.505Z,5.38
2023-12-14T01:25:27.767Z,5.53
2023-12-14T01:27:54.815Z,5.65
2023-12-14T01:30:21.865Z,5.64
2023-12-14T01:32:48.989Z,5.41
2023-12-14T01:35:16.169Z,5.38
2023-12-14T01:37:43.172Z,5.52
2023-12-14T01:40:10.558Z,5.46
2023-12-14T01:42:37.703Z,5.38
2023-12-14T01:45:06.627Z,5.29
2023-12-14T01:47:33.691Z,5.29
2023-12-14T01:50:00.810Z,5.50
2023-12-14T01:52:27.839Z,5.53
2023-12-14T01:54:56.493Z,5.44
2023-12-14T01:57:23.415Z,5.60
2023-12-14T01:59:50.369Z,5.72
2023-12-14T02:02:17.489Z,5.81
2023-12-14T02:04:45.011Z,5.74
2023-12-14T02:07:12.305Z,5.56
2023-12-14T02:09:39.357Z,5.29
2023-12-14T02:12:06.723Z,5.44
2023-12-14T02:14:33.725Z,5.55
2023-12-14T02:17:00.928Z,5.55
2023-12-14T02:19:27.827Z,5.67
2023-12-14T02:21:54.822Z,5.39
2023-12-14T02:24:21.798Z,5.58
2023-12-14T02:27:02.067Z,5.62
2023-12-14T02:29:31.248Z,5.42
2023-12-14T02:31:58.444Z,5.47
2023-12-14T02:34:26.689Z,5.60
2023-12-14T02:36:54.216Z,5.43
2023-12-14T02:39:21.232Z,5.56
2023-12-14T02:41:48.274Z,5.68
2023-12-14T02:44:15.386Z,5.70
2023-12-14T02:46:42.552Z,5.87
2023-12-14T02:49:10.134Z,5.65
2023-12-14T02:51:37.395Z,5.72
2023-12-14T02:54:04.321Z,5.83
2023-12-14T02:56:31.252Z,5.83
2023-12-14T02:58:58.238Z,5.78
2023-12-14T03:01:25.435Z,5.76
2023-12-14T03:03:52.546Z,5.52
2023-12-14T03:06:19.573Z,5.47
2023-12-14T03:08:46.628Z,5.39
2023-12-14T03:11:23.296Z,5.53
2023-12-14T03:13:50.906Z,5.52
2023-12-14T03:16:20.800Z,5.51
2023-12-14T03:18:47.882Z,5.57
2023-12-14T03:21:14.791Z,5.57
2023-12-14T03:23:41.751Z,5.69
2023-12-14T03:26:08.841Z,5.80
2023-12-14T03:28:36.314Z,5.67
2023-12-14T03:31:03.484Z,5.53
2023-12-14T03:33:31.075Z,5.41
2023-12-14T03:35:58.263Z,5.37
2023-12-14T03:38:25.215Z,5.58
2023-12-14T03:40:52.136Z,5.61
2023-12-14T03:43:19.248Z,5.51
2023-12-14T03:45:46.198Z,5.64
2023-12-14T03:48:13.326Z,5.79
2023-12-14T03:50:40.262Z,5.83
2023-12-14T03:53:07.412Z,5.54
2023-12-14T03:55:34.903Z,5.82
2023-12-14T03:58:02.048Z,5.79
2023-12-14T04:00:29.007Z,5.75
2023-12-14T04:02:56.040Z,5.74
2023-12-14T04:05:23.209Z,5.65
2023-12-14T04:07:50.359Z,5.72
2023-12-14T04:10:17.384Z,5.81
2023-12-14T04:12:45.138Z,5.64
2023-12-14T04:15:12.252Z,5.72
2023-12-14T04:17:39.590Z,5.83
2023-12-14T04:20:07.937Z,5.90
2023-12-14T04:22:35.611Z,5.66
2023-12-14T04:25:02.662Z,5.68
2023-12-14T04:27:31.329Z,5.75
2023-12-14T04:29:58.577Z,5.89
2023-12-14T04:32:25.693Z,5.91
2023-12-14T04:34:52.783Z,5.90
2023-12-14T04:37:20.125Z,5.99
2023-12-14T04:39:47.091Z,5.97
2023-12-14T04:42:14.040Z,5.99
2023-12-14T04:44:40.992Z,6.05
2023-12-14T04:47:09.646Z,5.80
2023-12-14T04:49:37.370Z,5.62
2023-12-14T04:52:04.786Z,5.83
2023-12-14T04:54:31.793Z,5.95
2023-12-14T04:56:58.859Z,6.10
2023-12-14T04:59:25.947Z,5.97
2023-12-14T05:01:52.968Z,5.66
2023-12-14T05:04:19.992Z,5.69
2023-12-14T05:06:46.948Z,5.55
2023-12-14T05:09:14.058Z,5.73
2023-12-14T05:11:41.912Z,5.58
2023-12-14T05:14:09.161Z,5.72
2023-12-14T05:16:36.183Z,5.54
2023-12-14T05:19:03.161Z,5.73
2023-12-14T05:21:30.106Z,5.87
2023-12-14T05:23:57.165Z,5.56
2023-12-14T05:26:24.172Z,5.46
2023-12-14T05:28:51.167Z,5.60
2023-12-14T05:31:18.183Z,5.63
2023-12-14T05:33:45.391Z,5.58
2023-12-14T05:36:12.622Z,5.65
2023-12-14T05:38:40.360Z,5.74
2023-12-14T05:41:07.718Z,5.55
2023-12-14T05:43:34.780Z,5.54
2023-12-14T05:46:01.842Z,5.61
2023-12-14T05:48:29.693Z,5.54
2023-12-14T05:50:57.950Z,5.50
2023-12-14T05:53:24.942Z,5.64
2023-12-14T05:55:52.257Z,5.45
2023-12-14T05:58:19.870Z,5.61
2023-12-14T06:00:46.954Z,5.36
2023-12-14T06:03:13.879Z,5.38
2023-12-14T06:05:41.085Z,5.50
2023-12-14T06:08:08.456Z,5.46
2023-12-14T06:10:35.642Z,5.61
2023-12-14T06:13:02.893Z,5.73
2023-12-14T06:15:29.816Z,5.72
2023-12-14T06:17:56.889Z,5.72
2023-12-14T06:20:24.405Z,5.66
2023-12-14T06:22:51.530Z,5.64
2023-12-14T06:25:18.532Z,5.63
2023-12-14T06:27:46.198Z,5.56
2023-12-14T06:30:13.665Z,5.62
2023-12-14T06:32:41.275Z,5.53
2023-12-14T06:35:08.661Z,5.69
2023-12-14T06:37:35.717Z,5.67
2023-12-14T06:40:02.672Z,5.44
2023-12-14T06:42:29.691Z,5.63
2023-12-14T06:44:56.741Z,5.77
2023-12-14T06:47:23.717Z,5.89
2023-12-14T06:49:51.668Z,5.88
2023-12-14T06:52:18.731Z,5.96
2023-12-14T06:54:45.975Z,5.91
2023-12-14T06:57:13.404Z,5.99
2023-12-14T06:59:40.367Z,6.04
2023-12-14T07:02:08.215Z,6.10
2023-12-14T07:04:35.195Z,6.07
2023-12-14T07:07:02.674Z,6.07
2023-12-14T07:09:29.677Z,6.18
2023-12-14T07:11:56.926Z,6.16
2023-12-14T07:14:26.374Z,6.00
2023-12-14T07:16:53.569Z,6.05
2023-12-14T07:19:20.592Z,6.18
2023-12-14T07:21:47.955Z,6.18
2023-12-14T07:24:14.917Z,6.15
2023-12-14T07:26:41.868Z,6.41
2023-12-14T07:29:08.887Z,6.58
2023-12-14T07:31:35.890Z,6.72
2023-12-14T07:34:02.903Z,6.75
2023-12-14T07:36:29.846Z,6.84
2023-12-14T07:38:56.924Z,6.78
2023-12-14T07:41:27.850Z,6.58
2023-12-14T07:43:55.136Z,6.65
2023-12-14T07:46:22.488Z,6.65
2023-12-14T07:48:49.443Z,6.67
2023-12-14T07:51:16.453Z,6.71
2023-12-14T07:53:44.016Z,6.82
2023-12-14T07:56:11.136Z,6.79
2023-12-14T07:58:38.378Z,6.77
2023-12-14T08:01:05.813Z,6.90
2023-12-14T08:03:32.814Z,6.91
2023-12-14T08:05:59.853Z,6.97
2023-12-14T08:08:27.513Z,7.03
2023-12-14T08:10:54.546Z,7.22
2023-12-14T08:13:21.528Z,7.14
2023-12-14T08:15:48.607Z,7.23
2023-12-14T08:18:15.704Z,7.23
2023-12-14T08:20:42.957Z,7.19
2023-12-14T08:23:09.977Z,7.34
2023-12-14T08:25:37.073Z,7.39
2023-12-14T08:28:05.880Z,7.51
2023-12-14T08:30:33.152Z,7.58
2023-12-14T08:33:00.305Z,7.76
2023-12-14T08:35:27.462Z,7.92
2023-12-14T08:37:54.498Z,7.84
2023-12-14T08:40:21.614Z,7.79
2023-12-14T08:42:48.968Z,7.93
2023-12-14T08:45:16.070Z,7.87
2023-12-14T08:47:44.282Z,7.97
2023-12-14T08:50:12.485Z,7.95
2023-12-14T08:52:39.520Z,7.88
2023-12-14T08:55:07.226Z,7.95
2023-12-14T08:57:34.143Z,7.96
2023-12-14T09:00:01.111Z,8.17
2023-12-14T09:02:28.305Z,8.29
2023-12-14T09:04:55.492Z,8.43
2023-12-14T09:07:22.503Z,8.46
2023-12-14T09:09:49.519Z,8.49
2023-12-14T09:12:16.506Z,8.57
2023-12-14T09:14:43.481Z,8.64
2023-12-14T09:17:10.496Z,8.69
2023-12-14T09:19:37.589Z,8.79
2023-12-14T09:22:04.685Z,8.86
2023-12-14T09:24:31.632Z,8.82
2023-12-14T09:26:58.552Z,8.85
2023-12-14T09:29:25.555Z,8.85
2023-12-14T09:31:53.031Z,8.89
2023-12-14T09:34:20.182Z,9.03
2023-12-14T09:36:47.248Z,9.02
2023-12-14T09:39:15.028Z,9.07
2023-12-14T09:41:42.145Z,9.14
2023-12-14T09:44:09.217Z,9.16
2023-12-14T09:46:39.406Z,9.16
2023-12-14T09:49:08.917Z,9.32
2023-12-14T09:51:37.521Z,9.52
2023-12-14T09:54:04.683Z,9.56
2023-12-14T09:56:31.951Z,9.57
2023-12-14T09:58:59.722Z,9.61
2023-12-14T10:01:28.049Z,9.61
2023-12-14T10:04:13.352Z,9.65
2023-12-14T10:06:41.617Z,9.80
2023-12-14T10:09:14.759Z,9.98
2023-12-14T10:11:42.391Z,10.06
2023-12-14T10:14:23.831Z,10.13
2023-12-14T10:16:52.657Z,10.36
2023-12-14T10:19:21.244Z,10.34
2023-12-14T10:21:49.487Z,10.38
2023-12-14T10:24:20.420Z,10.48
2023-12-14T10:26:48.749Z,10.54
2023-12-14T10:29:16.629Z,10.68
2023-12-14T10:31:45.145Z,10.77
2023-12-14T10:34:14.336Z,10.88
2023-12-14T10:36:44.184Z,11.04
2023-12-14T10:39:14.995Z,11.03
2023-12-14T10:41:43.481Z,11.00
2023-12-14T10:44:22.070Z,11.00
2023-12-14T10:46:59.998Z,11.01
2023-12-14T10:49:28.077Z,11.12
2023-12-14T10:51:58.205Z,11.27
2023-12-14T10:54:26.532Z,11.38
2023-12-14T10:56:58.075Z,11.54
2023-12-14T10:59:25.923Z,11.70
2023-12-14T11:01:58.576Z,11.99
2023-12-14T11:04:28.617Z,12.31
2023-12-14T11:06:56.191Z,12.28
2023-12-14T11:09:26.049Z,12.36
2023-12-14T11:12:00.147Z,12.62
2023-12-14T11:14:28.339Z,12.71
2023-12-14T11:16:57.649Z,12.72
2023-12-14T11:19:24.643Z,12.72
2023-12-14T11:21:54.786Z,12.77
2023-12-14T11:24:22.026Z,12.83
2023-12-14T11:26:50.990Z,12.74
2023-12-14T11:29:23.301Z,12.84
2023-12-14T11:31:50.425Z,12.92
2023-12-14T11:34:18.468Z,12.99
2023-12-14T11:36:47.164Z,12.96
2023-12-14T11:39:14.251Z,12.86
2023-12-14T11:41:41.216Z,12.82
2023-12-14T11:44:08.396Z,12.78
2023-12-14T11:46:35.838Z,12.84
2023-12-14T11:49:05.096Z,12.93
2023-12-14T11:51:34.746Z,12.74
2023-12-14T11:54:03.638Z,12.65
2023-12-14T11:56:32.254Z,12.54
2023-12-14T11:58:59.512Z,12.36
2023-12-14T12:01:27.837Z,12.30
2023-12-14T12:03:55.500Z,12.30
2023-12-14T12:06:29.286Z,12.04
2023-12-14T12:08:56.518Z,12.01
2023-12-14T12:11:26.553Z,11.85
2023-12-14T12:13:58.490Z,11.86
2023-12-14T12:16:26.732Z,11.83
2023-12-14T12:18:54.412Z,11.88
2023-12-14T12:21:21.590Z,11.79
2023-12-14T12:23:48.595Z,11.79
2023-12-14T12:26:15.980Z,11.83
2023-12-14T12:28:42.959Z,11.84
2023-12-14T12:31:10.082Z,11.85
2023-12-14T12:33:39.656Z,11.78
2023-12-14T12:36:07.609Z,11.81
2023-12-14T12:38:34.925Z,11.76
2023-12-14T12:41:02.689Z,11.72
2023-12-14T12:43:30.300Z,11.75
2023-12-14T12:45:59.282Z,11.76
2023-12-14T12:48:27.863Z,11.79
2023-12-14T12:50:55.477Z,11.80
2023-12-14T12:53:22.600Z,11.83
2023-12-14T12:55:49.801Z,11.83
2023-12-14T12:58:16.898Z,11.83
2023-12-14T13:00:43.904Z,11.80
2023-12-14T13:03:12.146Z,11.70
2023-12-14T13:05:39.304Z,11.67
2023-12-14T13:08:06.860Z,11.63
2023-12-14T13:10:33.863Z,11.57
2023-12-14T13:13:01.013Z,11.52
2023-12-14T13:15:30.770Z,11.56
2023-12-14T13:17:58.774Z,11.45
2023-12-14T13:20:26.026Z,11.44
2023-12-14T13:22:54.478Z,11.47
2023-12-14T13:25:24.098Z,11.43
2023-12-14T13:27:51.223Z,11.45
2023-12-14T13:30:19.471Z,11.50
2023-12-14T13:32:47.145Z,11.49
2023-12-14T13:35:14.560Z,11.49
2023-12-14T13:37:42.751Z,11.50
2023-12-14T13:40:13.209Z,11.42
2023-12-14T13:42:46.879Z,11.41
2023-12-14T13:45:21.966Z,11.46
2023-12-14T13:47:49.122Z,11.43
2023-12-14T13:50:16.269Z,11.39
2023-12-14T13:52:44.503Z,11.31
2023-12-14T13:55:11.509Z,11.29
2023-12-14T13:57:38.633Z,11.24
2023-12-14T14:00:07.256Z,11.21
2023-12-14T14:02:34.606Z,11.28
2023-12-14T14:05:01.767Z,11.16
2023-12-14T14:07:28.748Z,11.09
2023-12-14T14:09:56.128Z,11.03
2023-12-14T14:12:23.536Z,11.09
2023-12-14T14:14:51.002Z,11.03
2023-12-14T14:17:18.623Z,11.02
2023-12-14T14:19:45.755Z,11.05
2023-12-14T14:22:12.770Z,10.97
2023-12-14T14:24:39.711Z,10.94
2023-12-14T14:27:07.005Z,10.87
2023-12-14T14:29:34.058Z,10.77
2023-12-14T14:32:01.120Z,10.79
2023-12-14T14:34:28.380Z,10.87
2023-12-14T14:36:55.358Z,10.77
2023-12-14T14:39:22.432Z,10.74
2023-12-14T14:41:49.393Z,10.63
2023-12-14T14:44:16.710Z,10.64
2023-12-14T14:46:44.655Z,10.68
2023-12-14T14:49:12.119Z,10.83
2023-12-14T14:51:40.194Z,10.69
2023-12-14T14:54:07.124Z,10.68
2023-12-14T14:56:34.171Z,10.64
2023-12-14T14:59:01.255Z,10.68
2023-12-14T15:01:28.291Z,10.61
2023-12-14T15:03:55.414Z,10.45
2023-12-14T15:06:24.329Z,10.53
2023-12-14T15:08:51.345Z,10.46
2023-12-14T15:11:18.452Z,10.37
2023-12-14T15:13:45.470Z,10.31
2023-12-14T15:16:13.060Z,10.25
2023-12-14T15:18:42.863Z,10.22
2023-12-14T15:21:15.712Z,10.31
2023-12-14T15:23:45.420Z,10.42
2023-12-14T15:26:12.634Z,10.43
2023-12-14T15:28:40.177Z,10.43
2023-12-14T15:31:08.331Z,10.36
2023-12-14T15:33:35.623Z,10.30
2023-12-14T15:36:06.443Z,10.24
2023-12-14T15:38:33.570Z,10.21
2023-12-14T15:41:00.539Z,10.21
2023-12-14T15:43:27.572Z,10.33
2023-12-14T15:45:54.585Z,10.30
2023-12-14T15:48:21.721Z,10.27
2023-12-14T15:50:48.773Z,10.26
2023-12-14T15:53:15.777Z,10.23
2023-12-14T15:55:42.860Z,10.22
2023-12-14T15:58:12.761Z,10.25
2023-12-14T16:00:40.167Z,10.31
2023-12-14T16:03:09.341Z,10.28
2023-12-14T16:05:37.187Z,10.34
2023-12-14T16:08:04.313Z,10.29
2023-12-14T16:10:32.451Z,10.30
2023-12-14T16:12:59.591Z,10.29
2023-12-14T16:15:26.817Z,10.34
2023-12-14T16:17:53.943Z,10.33
2023-12-14T16:20:24.006Z,10.27
2023-12-14T16:22:54.255Z,10.26
2023-12-14T16:25:21.382Z,10.21
2023-12-14T16:27:48.852Z,10.23
2023-12-14T16:30:17.337Z,10.19
2023-12-14T16:32:44.502Z,10.24
2023-12-14T16:35:11.939Z,10.29
2023-12-14T16:37:39.043Z,10.18
2023-12-14T16:40:06.837Z,10.24
2023-12-14T16:42:34.180Z,10.31
2023-12-14T16:45:01.289Z,10.26
2023-12-14T16:47:28.699Z,10.31
2023-12-14T16:49:55.974Z,10.43
2023-12-14T16:52:23.403Z,10.36
2023-12-14T16:54:50.388Z,10.30
2023-12-14T16:57:17.585Z,10.42
2023-12-14T16:59:45.426Z,10.35
2023-12-14T17:02:12.413Z,10.29
2023-12-14T17:04:40.926Z,10.25
2023-12-14T17:07:08.074Z,10.21
2023-12-14T17:09:34.971Z,10.20
2023-12-14T17:12:01.964Z,10.11
2023-12-14T17:14:29.111Z,10.09
2023-12-14T17:16:56.333Z,10.04
2023-12-14T17:19:23.256Z,10.06
2023-12-14T17:21:55.228Z,10.20
2023-12-14T17:24:22.453Z,10.21
2023-12-14T17:26:49.374Z,10.19
2023-12-14T17:29:16.418Z,10.12
2023-12-14T17:31:44.815Z,10.16
2023-12-14T17:34:12.106Z,10.11
2023-12-14T17:36:40.860Z,9.94
2023-12-14T17:39:07.954Z,9.95
2023-12-14T17:41:34.980Z,9.95
2023-12-14T17:44:02.088Z,9.94
2023-12-14T17:46:29.219Z,9.90
2023-12-14T17:48:57.003Z,9.89
2023-12-14T17:51:24.076Z,9.84
2023-12-14T17:53:51.118Z,9.78
2023-12-14T17:56:18.140Z,9.79
2023-12-14T17:58:46.905Z,9.73
2023-12-14T18:01:15.155Z,9.76
2023-12-14T18:03:42.386Z,9.68
2023-12-14T18:06:09.541Z,9.60
2023-12-14T18:08:36.623Z,9.69
2023-12-14T18:11:03.879Z,9.57
2023-12-14T18:13:31.072Z,9.60
2023-12-14T18:15:58.263Z,9.60
2023-12-14T18:18:25.907Z,9.57
2023-12-14T18:20:53.298Z,9.49
2023-12-14T18:23:20.433Z,9.57
2023-12-14T18:25:47.856Z,9.60
2023-12-14T18:28:17.895Z,9.45
2023-12-14T18:30:45.420Z,9.43
2023-12-14T18:33:13.029Z,9.44
2023-12-14T18:35:40.088Z,9.46
2023-12-14T18:38:07.060Z,9.46
2023-12-14T18:40:34.118Z,9.44
2023-12-14T18:43:01.156Z,9.40
2023-12-14T18:45:28.228Z,9.32
2023-12-14T18:47:55.281Z,9.31
2023-12-14T18:50:22.339Z,9.43
2023-12-14T18:52:49.441Z,9.45
2023-12-14T18:55:16.866Z,9.39
2023-12-14T18:57:46.664Z,9.34
2023-12-14T19:00:14.103Z,9.44
2023-12-14T19:02:41.284Z,9.43
2023-12-14T19:05:09.157Z,9.45
2023-12-14T19:07:36.564Z,9.41
2023-12-14T19:10:07.657Z,9.42
2023-12-14T19:12:38.118Z,9.44
2023-12-14T19:15:06.201Z,9.47
2023-12-14T19:17:33.676Z,9.42
2023-12-14T19:20:01.467Z,9.35
2023-12-14T19:22:29.194Z,9.46
2023-12-14T19:24:56.302Z,9.62
2023-12-14T19:27:23.336Z,9.56
2023-12-14T19:29:50.465Z,9.40
2023-12-14T19:32:18.171Z,9.35
2023-12-14T19:34:45.819Z,9.29
2023-12-14T19:37:13.010Z,9.38
2023-12-14T19:39:40.073Z,9.32
2023-12-14T19:42:08.169Z,9.23
2023-12-14T19:44:35.365Z,9.20
2023-12-14T19:47:02.593Z,9.23
2023-12-14T19:49:29.923Z,9.31
2023-12-14T19:51:57.769Z,9.33
2023-12-14T19:54:24.813Z,9.46
2023-12-14T19:56:51.916Z,9.43
2023-12-14T19:59:18.976Z,9.31
2023-12-14T20:01:46.415Z,9.10
2023-12-14T20:04:15.715Z,9.25
2023-12-14T20:06:44.337Z,9.29
2023-12-14T20:09:11.274Z,9.41
2023-12-14T20:11:38.191Z,9.35
2023-12-14T20:14:05.292Z,9.41
2023-12-14T20:16:32.337Z,9.53
2023-12-14T20:18:59.510Z,9.43
2023-12-14T20:21:26.632Z,9.47
2023-12-14T20:23:53.658Z,9.45
2023-12-14T20:26:26.990Z,9.42
2023-12-14T20:28:54.374Z,9.56
2023-12-14T20:31:21.610Z,9.73
2023-12-14T20:33:48.707Z,9.88
2023-12-14T20:36:16.118Z,9.95
2023-12-14T20:38:44.664Z,9.87
2023-12-14T20:41:14.600Z,9.94
2023-12-14T20:43:41.942Z,9.90
2023-12-14T20:46:08.872Z,9.85
2023-12-14T20:48:38.928Z,9.87
2023-12-14T20:51:06.586Z,9.78
2023-12-14T20:53:33.587Z,9.70
2023-12-14T20:56:00.707Z,9.69
2023-12-14T20:58:27.720Z,9.65
2023-12-14T21:00:54.766Z,9.67
2023-12-14T21:03:21.746Z,9.59
2023-12-14T21:05:50.252Z,9.67
2023-12-14T21:08:17.919Z,10.26
2023-12-14T21:10:45.249Z,10.43
2023-12-14T21:13:12.450Z,10.76
2023-12-14T21:15:39.617Z,10.87
2023-12-14T21:18:07.119Z,11.07
2023-12-14T21:20:34.278Z,10.96
2023-12-14T21:23:01.465Z,10.98
2023-12-14T21:25:39.606Z,11.01
2023-12-14T21:28:06.990Z,11.08
2023-12-14T21:30:35.451Z,11.07
2023-12-14T21:33:02.815Z,11.04
2023-12-14T21:35:30.193Z,11.06
2023-12-14T21:37:57.302Z,11.21
2023-12-14T21:40:24.443Z,11.11
2023-12-14T21:42:51.573Z,11.19
2023-12-14T21:45:18.595Z,11.20
2023-12-14T21:47:45.911Z,11.28
2023-12-14T21:50:13.352Z,11.12
2023-12-14T21:52:41.074Z,11.07
2023-12-14T21:55:08.442Z,11.10
2023-12-14T21:57:35.719Z,11.01
2023-12-14T22:00:03.085Z,11.12
2023-12-14T22:02:31.236Z,11.12
2023-12-14T22:04:58.885Z,11.06
2023-12-14T22:07:25.926Z,11.10
2023-12-14T22:09:53.473Z,11.11
2023-12-14T22:12:21.982Z,11.21
2023-12-14T22:14:49.556Z,11.19
2023-12-14T22:17:16.529Z,11.27
2023-12-14T22:19:43.498Z,11.25
2023-12-14T22:22:10.439Z,11.12
2023-12-14T22:24:37.857Z,11.13
2023-12-14T22:27:06.586Z,11.17
2023-12-14T22:29:33.655Z,11.15
2023-12-14T22:32:00.967Z,11.18
2023-12-14T22:34:28.392Z,11.17
2023-12-14T22:36:55.377Z,11.30
2023-12-14T22:39:22.302Z,11.24
2023-12-14T22:41:49.334Z,11.33
2023-12-14T22:44:16.381Z,11.30
2023-12-14T22:46:43.351Z,11.31
2023-12-14T22:49:10.608Z,11.39
2023-12-14T22:51:38.284Z,11.31
2023-12-14T22:54:05.473Z,11.33
2023-12-14T22:56:32.763Z,11.28
2023-12-14T22:59:00.305Z,11.30
2023-12-14T23:01:32.482Z,11.13
2023-12-14T23:04:00.348Z,11.13
2023-12-14T23:06:27.450Z,11.20
2023-12-14T23:08:55.238Z,11.13
2023-12-14T23:11:22.497Z,11.17
2023-12-14T23:13:49.922Z,11.06
2023-12-14T23:16:17.062Z,11.00
2023-12-14T23:18:44.169Z,11.07
2023-12-14T23:21:11.266Z,11.12
2023-12-14T23:23:38.240Z,11.08
2023-12-14T23:26:05.893Z,11.01
2023-12-14T23:28:32.980Z,11.03
2023-12-14T23:30:59.992Z,11.06
2023-12-14T23:33:27.157Z,11.02
2023-12-14T23:35:54.205Z,10.97
2023-12-14T23:38:21.349Z,11.02
2023-12-14T23:40:48.495Z,11.01
2023-12-14T23:43:15.677Z,10.91
2023-12-14T23:45:42.642Z,10.96
2023-12-14T23:48:09.941Z,10.99
2023-12-14T23:50:37.042Z,10.91
2023-12-14T23:53:03.980Z,10.94
2023-12-14T23:55:30.989Z,10.80
2023-12-14T23:57:57.981Z,10.79
